Alton, AL

2:35 PM CST on March 02, 2015 (GMT -0600)
Kidron | Change Station
CLOSE
Current Station
Personal Weather Station
Location: Trussville, AL
Elevation: 9 ft
Nearby Weather Stations

Elev 9 ft 33.65 °N, 86.62 °W | Updated 6 seconds ago

Rain
Rain
50.2 °F
Feels Like 50.2 °F
N
0.0
Wind Variable Wind from NNW
Gusts 2.0 mph

Today
High -- | Low -- °F
--% Chance of Precip.
Yesterday
High -- | Low -- °F
Precip. -- in
6:13 AM 5:43 PM
Waxing Gibbous, 93% visible
Pressure 30.31 in
Visibility 2.5 miles
Clouds Mostly Cloudy 500 ft
Overcast 7000 ft
Dew Point 50 °F
Humidity 98%
Rainfall 0.51 in
Snow Depth Not available.
UV 2 out of 12
Pollen 3.40 out of 12
Air Quality Not available.
Flu Activity Not available.
METAR KBHM 021953Z 35008KT 2 1/2SM -RA BR BKN005 OVC070 10/09 A3031 RMK AO2 TSB18E33 SLP262 TS MOV E P0011 T01000089

More Conditions Fewer Conditions

Pressure 30.31 in
Visibility 2.5 miles
Clouds Mostly Cloudy 500 ft
Overcast 7000 ft
Dew Point 50 °F
Humidity 98%
Rainfall 0.51 in
Snow Depth Not available.
UV 2 out of 12
Pollen 3.40 out of 12
Air Quality Not available.
Flu Activity Not available.
METAR KBHM 021953Z 35008KT 2 1/2SM -RA BR BKN005 OVC070 10/09 A3031 RMK AO2 TSB18E33 SLP262 TS MOV E P0011 T01000089

More Conditions Fewer Conditions

10-Day Weather Forecast

Almanac

Astronomy

Mar. 02, 2015 Rise Set
Actual Time
Civil Twilight
Nautical Twilight
Astronomical Twilight
Moon
Length of Visible Light
Length of Day
Tomorrow will be .
, % of the Moon is Illuminated

Today's Extremes

State Highs State Lows

Community

WunderPhotos

Upload Photos

1,801,939 photos uploaded!

WunderBlogs® & News

Nearby

Air Quality

  Air Quality AQ Index Pollutant
Not available.

Snow Depth

Station Depth Elevation

Earthquake Activity

City Distance Mag. Time & Date
Minimum magnitude displayed is 2.5.

Coastal Water Temperatures

Place Temperature

Nearby Weather Stations